Terminal Aerodrome Forecast
Issued by NWS Blacksburg, VA

Current Version | Previous Version | Graphics & Text | Print | Product List | Glossary On
Versions: 1 2 3 4 5 6 7 8 9 10 11 12 13 14 15 16 17
000
FTUS41 KRNK 221841 AAA
TAFBLF
TAF AMD
KBLF 221841Z 2219/2318 26010KT P6SM BKN018 OVC040
     FM222000 29013G25KT P6SM BKN015 OVC030
     FM230100 31011KT P6SM BKN025
     FM230700 30012KT P6SM SCT020
     FM231400 30013G25KT P6SM SKC=

USA.gov is the U.S. government's official web portal to all federal, state and local government web resources and services.